Calvert City, KY

11:01 PM CDT on September 23, 2014 (GMT -0500)
Calvert City | Change Station
CLOSE
Current Station
Personal Weather Station
Location: Calvert City, KY
Elevation: 364 ft
Nearby Weather Stations

Elev 364 ft 37.02 °N, 88.33 °W | Updated 14 seconds ago

Clear
Clear
56.3 °F
Feels Like 56.3 °F
N
0.0
Wind Variable Wind from North
Gusts 0.0 mph

Today
High -- | Low -- °F
--% Chance of Precip.
Yesterday
High -- | Low -- °F
Precip. -- in
6:42 AM 6:48 PM
Waning Crescent, 0% visible
Pressure 30.24 in
Visibility 10.0 miles
Clouds Clear
Dew Point 46 °F
Humidity 69%
Rainfall 0.00 in
Snow Depth Not available.
UV 0 out of 12
Pollen 6.30 out of 12
Air Quality Not available.
Flu Activity Not available.
METAR KM25 240355Z AUTO 07003KT 10SM CLR 15/10 A3024 RMK AO2

More Conditions Fewer Conditions

Pressure 30.24 in
Visibility 10.0 miles
Clouds Clear
Dew Point 46 °F
Humidity 69%
Rainfall 0.00 in
Snow Depth Not available.
UV 0 out of 12
Pollen 6.30 out of 12
Air Quality Not available.
Flu Activity Not available.
METAR KM25 240355Z AUTO 07003KT 10SM CLR 15/10 A3024 RMK AO2

More Conditions Fewer Conditions

10-Day Weather Forecast

Almanac

Astronomy

Sep. 23, 2014 Rise Set
Actual Time 6:42 AM CDT 6:48 PM CDT
Civil Twilight 6:16 AM CDT 7:14 PM CDT
Nautical Twilight 5:45 AM CDT 7:44 PM CDT
Astronomical Twilight 5:15 AM CDT 8:15 PM CDT
Moon 6:06 AM CDT (9/23) 6:27 PM CDT (9/23)
Length of Visible Light 12h 58m
Length of Day
12h 06m
Tomorrow will be 2m 21s shorter.
Waning Crescent, 0% of the Moon is Illuminated
Sep 24
Waning Crescent
Sep 24
New
Oct 1
First Quarter
Oct 8
Full
Oct 15
Last Quarter

Today's Extremes

State Highs State Lows

Community

WunderPhotos

Upload Photos

1,755,882 photos uploaded!

WunderBlogs® & News

Nearby

Snow Depth

Station Depth Elevation
No new snow has been reported.

Earthquake Activity

City Distance Mag. Time & Date
No recent earthquake activity has been reported nearby.
Minimum magnitude displayed is 2.5.

Coastal Water Temperatures

Place Temperature
No Stations Reporting

Nearby Weather Stations